Portada
METAR-TAF:

METAR-TAF

Aeroports :

Aeroport Internacional de Gafsa

Gafsa, Tunísia

latitud: 34-25N, longitud: 008-49E, altitud: 313 m

Observació

L'informe es va fer fa 13 minuts, a les 03:00 UTC
Vent 8 kt del Nord-Est
Temperatura 5°C
Humitat 100%
Pressió 1023 hPa
Visibilitat 10 km o més
sense núvols per sota de 1500 mi sense presència de cumulonimbus.

METAR: DTTF 250300Z 05008KT CAVOK 05/05 Q1023

Hora: 04:13 (03:13 UTC)

Pronòstic

L'informe es va fer fa 3 hores i 13 minuts, a les 00:00 UTC
Pronòstic vàlid del 25 a les 01 UTC al 25 a les 10 UTC
Vent 4 kt amb direcció variable
Visibilitat 10 km o més
sense núvols per sota de 1500 mi sense presència de cumulonimbus.

TAF: DTTF 250000Z 2501/2510 VRB04KT CAVOK

Observacions i pronòstics meteorològics de més de 4000 aeroports (METAR i TAF).

Les estacions disponibles són els punts grocs i vermells al mapa.

Posi el ratolí al punt desitjat per veure el nom de l'estació.

Feu clic per veure les observacions i els pronòstics meteorològics.

Per canviar el mapa: feu clic els botons verds amb una creu de color negre per apropar; al botó verd amb un guió per allunyar la imatge; o en les fletxes verdes per a mapes adjacents.


METAR-TAF: